Time;durP1;ratioP1;P1;durP2;ratioP2;P2;SDS_P1;SDS_P2;PMS_P1;PMS_P2;Temp;Humidity;BMP_temperature;BMP_pressure;BME280_temperature;BME280_humidity;BME280_pressure;Samples;Min_cycle;Max_cycle;Signal;HPM_P1;HPM_P2
2022/06/08 00:00:47;;;;;;;2.53;1.38;;;;;;;20.31;61.39;99252.81;5049232;28;20040;-85
2022/06/08 00:03:47;;;;;;;1.65;1.05;;;;;;;20.29;61.69;99241.31;5048612;28;20091;-86
2022/06/08 00:06:13;;;;;;;3.78;1.20;;;;;;;20.04;61.94;99224.09;5053840;28;20160;-85
2022/06/08 00:08:38;;;;;;;4.15;1.20;;;;;;;20.20;61.83;99239.19;5055553;28;20037;-84
2022/06/08 00:11:04;;;;;;;1.35;0.95;;;;;;;19.91;62.02;99201.72;5059930;28;20411;-85
2022/06/08 00:13:30;;;;;;;1.67;1.05;;;;;;;19.89;62.46;99221.50;5048889;28;20033;-84
2022/06/08 00:15:56;;;;;;;1.65;1.55;;;;;;;19.72;64.12;99238.53;5052505;28;20066;-84
2022/06/08 00:18:21;;;;;;;1.95;1.15;;;;;;;19.76;63.53;99218.69;5059627;28;20495;-84
2022/06/08 00:20:47;;;;;;;2.42;1.65;;;;;;;19.73;64.13;99242.94;5047725;28;20033;-85
2022/06/08 00:23:13;;;;;;;2.13;1.50;;;;;;;19.57;64.54;99221.59;5048709;28;20058;-85
2022/06/08 00:25:39;;;;;;;1.80;1.50;;;;;;;19.52;64.54;99221.00;5050479;28;20056;-85
2022/06/08 00:28:04;;;;;;;2.15;1.08;;;;;;;19.53;64.33;99238.78;5051954;28;20083;-84
2022/06/08 00:30:31;;;;;;;3.63;1.63;;;;;;;19.40;64.85;99220.78;5050905;28;20037;-84
2022/06/08 00:32:57;;;;;;;2.05;0.80;;;;;;;19.19;65.33;99206.00;5047815;28;20043;-83
2022/06/08 00:35:23;;;;;;;2.75;1.67;;;;;;;19.19;65.51;99230.06;5051168;28;20029;-84
2022/06/08 00:37:48;;;;;;;2.30;1.33;;;;;;;18.67;66.61;99216.00;5067130;28;20025;-85
2022/06/08 00:40:18;;;;;;;3.22;1.60;;;;;;;18.69;66.68;99239.97;5064022;28;20052;-85
2022/06/08 00:42:44;;;;;;;3.22;1.55;;;;;;;18.56;67.07;99229.09;5065540;28;20020;-85
2022/06/08 00:45:14;;;;;;;3.13;1.42;;;;;;;18.40;67.16;99203.25;5049538;28;20091;-88
2022/06/08 00:47:49;;;;;;;2.58;1.25;;;;;;;18.39;67.48;99206.84;5066928;28;20794;-85
2022/06/08 00:50:20;;;;;;;2.67;2.17;;;;;;;18.33;67.40;99201.84;5048385;28;20044;-84
2022/06/08 00:52:47;;;;;;;4.22;2.35;;;;;;;18.63;67.76;99219.81;5047381;28;20414;-85
2022/06/08 00:55:15;;;;;;;2.95;1.73;;;;;;;18.75;67.24;99207.56;5047465;28;20032;-85
2022/06/08 00:58:05;;;;;;;3.72;2.08;;;;;;;18.68;67.41;99204.38;5046937;28;20037;-84
2022/06/08 01:00:39;;;;;;;1.27;1.10;;;;;;;18.85;66.75;99210.63;5048146;28;20033;-86
2022/06/08 01:03:08;;;;;;;3.13;1.67;;;;;;;18.78;67.06;99218.06;5047957;28;20032;-84
2022/06/08 01:05:40;;;;;;;1.88;1.23;;;;;;;18.78;66.47;99207.38;5051815;28;20512;-85
2022/06/08 01:08:32;;;;;;;3.35;2.10;;;;;;;19.04;66.18;99235.31;5059806;28;20029;-84
2022/06/08 01:11:28;;;;;;;2.58;1.52;;;;;;;19.04;66.17;99226.47;5046384;28;20863;-85
2022/06/08 01:13:59;;;;;;;5.57;1.45;;;;;;;18.96;66.29;99222.41;5030271;28;20507;-85
2022/06/08 01:16:25;;;;;;;3.25;2.05;;;;;;;18.78;66.35;99207.38;5057159;28;20059;-84
2022/06/08 01:18:51;;;;;;;2.80;2.10;;;;;;;18.68;66.40;99191.03;5067548;28;20028;-85
2022/06/08 01:21:22;;;;;;;2.03;1.83;;;;;;;18.76;66.66;99236.00;5067924;28;20039;-84
2022/06/08 01:23:56;;;;;;;3.33;1.40;;;;;;;18.53;66.28;99194.56;5067380;28;20029;-85
2022/06/08 01:26:29;;;;;;;1.27;1.17;;;;;;;18.66;66.40;99222.31;5058183;28;20059;-87
2022/06/08 01:29:18;;;;;;;1.67;1.27;;;;;;;18.61;66.52;99224.34;5067217;28;20036;-85
2022/06/08 01:32:12;;;;;;;1.75;1.20;;;;;;;18.49;66.47;99215.22;5068345;28;20036;-84
2022/06/08 01:34:43;;;;;;;1.90;1.17;;;;;;;18.58;66.69;99232.53;5065268;28;20128;-85
2022/06/08 01:37:11;;;;;;;1.77;1.25;;;;;;;18.36;67.57;99225.72;5065118;28;20127;-85
2022/06/08 01:39:44;;;;;;;4.35;1.65;;;;;;;18.21;68.16;99229.22;5067267;28;20033;-85
2022/06/08 01:42:25;;;;;;;3.92;3.03;;;;;;;18.36;67.53;99241.72;5067286;28;20033;-85
2022/06/08 01:47:54;;;;;;;2.45;1.60;;;;;;;18.23;68.20;99214.84;5045872;28;20060;-85
2022/06/08 01:50:40;;;;;;;4.15;1.95;;;;;;;18.16;68.13;99224.13;5047116;28;20039;-86
2022/06/08 01:53:23;;;;;;;2.33;1.73;;;;;;;18.13;68.67;99204.75;5063617;28;20043;-85
2022/06/08 01:56:08;;;;;;;4.25;3.03;;;;;;;18.06;69.01;99215.75;5057650;28;20068;-86
2022/06/08 01:58:57;;;;;;;6.07;2.88;;;;;;;18.27;68.07;99228.88;5047284;28;20090;-86
2022/06/08 02:02:03;;;;;;;2.67;1.70;;;;;;;18.04;68.82;99196.31;5047067;28;20135;-87
2022/06/08 02:04:39;;;;;;;2.15;1.90;;;;;;;18.19;68.62;99218.63;4987389;28;20181;-86
2022/06/08 02:07:16;;;;;;;4.07;1.63;;;;;;;18.21;69.20;99229.22;5056958;28;20075;-86
2022/06/08 02:09:51;;;;;;;2.20;1.55;;;;;;;18.26;68.82;99232.50;5066218;28;20042;-86
2022/06/08 02:12:17;;;;;;;3.13;1.93;;;;;;;18.29;68.53;99232.34;5057789;28;20029;-86
2022/06/08 02:14:48;;;;;;;4.15;2.17;;;;;;;17.99;68.99;99210.81;5049219;28;20039;-86
2022/06/08 02:17:19;;;;;;;2.88;1.88;;;;;;;17.95;69.46;99236.81;5056536;28;20061;-85
2022/06/08 02:19:48;;;;;;;2.75;1.90;;;;;;;17.93;69.55;99230.69;5046921;28;20043;-88
2022/06/08 02:22:19;;;;;;;2.40;1.85;;;;;;;17.65;69.64;99192.06;5046651;28;20051;-86
2022/06/08 02:25:17;;;;;;;4.93;2.08;;;;;;;17.96;69.75;99230.50;5047719;28;20040;-86
2022/06/08 02:27:50;;;;;;;2.35;1.70;;;;;;;17.80;69.27;99214.44;5031995;28;20041;-86
2022/06/08 02:30:20;;;;;;;2.40;1.77;;;;;;;17.80;69.95;99225.09;5063464;28;20913;-86
2022/06/08 02:36:22;;;;;;;3.60;2.20;;;;;;;17.89;68.58;99229.13;5053512;28;20052;-85
2022/06/08 02:38:55;;;;;;;3.30;2.28;;;;;;;17.98;68.32;99228.66;5050903;28;20086;-85
2022/06/08 02:41:24;;;;;;;3.05;1.80;;;;;;;17.78;68.50;99199.44;5056643;28;20111;-85
2022/06/08 02:43:55;;;;;;;6.30;2.35;;;;;;;18.04;68.19;99238.13;5068297;28;20033;-87
2022/06/08 02:46:20;;;;;;;5.13;2.40;;;;;;;17.85;68.53;99235.53;5050102;28;20017;-85
2022/06/08 02:48:46;;;;;;;3.03;2.13;;;;;;;17.75;68.53;99213.81;5050535;28;20039;-85
2022/06/08 02:51:12;;;;;;;2.15;1.75;;;;;;;17.71;67.93;99204.25;5066715;28;20087;-85
2022/06/08 02:53:41;;;;;;;3.33;1.65;;;;;;;17.83;68.41;99227.59;5070832;28;20029;-85
2022/06/08 02:56:22;;;;;;;3.10;2.05;;;;;;;17.78;68.71;99215.44;5050336;28;20040;-86
2022/06/08 02:58:54;;;;;;;2.55;1.92;;;;;;;17.85;68.77;99238.19;5050034;28;20060;-85
2022/06/08 03:01:46;;;;;;;2.35;1.67;;;;;;;17.78;68.83;99223.44;5057944;28;20059;-85
2022/06/08 03:04:23;;;;;;;2.03;1.67;;;;;;;17.93;68.11;99233.34;5065786;28;20087;-86
2022/06/08 03:06:56;;;;;;;5.25;2.42;;;;;;;18.10;67.52;99248.47;5058887;28;20063;-86
2022/06/08 03:09:24;;;;;;;2.40;1.48;;;;;;;17.84;68.23;99223.13;5063412;28;20095;-86
2022/06/08 03:12:01;;;;;;;3.70;1.60;;;;;;;17.76;68.92;99236.00;5049375;28;20617;-86
2022/06/08 03:14:29;;;;;;;2.17;1.70;;;;;;;17.60;69.30;99209.28;5050413;28;20102;-85
2022/06/08 03:17:07;;;;;;;2.83;2.00;;;;;;;17.65;68.68;99209.91;5062933;28;20136;-86
2022/06/08 03:19:34;;;;;;;3.33;1.98;;;;;;;17.72;68.02;99244.16;5085181;28;20545;-84
2022/06/08 03:22:00;;;;;;;1.75;1.30;;;;;;;17.68;68.51;99247.94;5052186;28;20036;-87
2022/06/08 03:24:26;;;;;;;2.63;1.92;;;;;;;17.82;68.64;99246.38;5057414;28;20044;-88
2022/06/08 03:26:56;;;;;;;3.05;1.92;;;;;;;17.84;69.08;99249.81;5068669;28;20086;-87
2022/06/08 03:29:22;;;;;;;6.03;3.05;;;;;;;17.82;68.84;99254.38;5069543;28;20524;-87
2022/06/08 03:31:49;;;;;;;2.72;2.25;;;;;;;17.83;68.60;99261.44;5065068;28;20033;-88
2022/06/08 03:34:15;;;;;;;2.38;1.83;;;;;;;17.92;68.43;99244.97;5056165;28;20036;-89
2022/06/08 03:36:42;;;;;;;1.63;1.35;;;;;;;18.09;68.20;99249.44;5067955;28;20071;-86
2022/06/08 03:39:08;;;;;;;3.10;1.27;;;;;;;18.28;68.41;99243.97;5067285;28;20066;-88
2022/06/08 03:41:34;;;;;;;2.63;1.88;;;;;;;18.31;68.35;99249.13;5068797;28;20060;-89
2022/06/08 03:44:00;;;;;;;3.72;1.92;;;;;;;18.45;67.99;99266.22;5066009;28;20102;-91
2022/06/08 03:46:27;;;;;;;2.70;1.52;;;;;;;18.28;68.91;99257.31;5055998;28;20048;-89
2022/06/08 03:48:54;;;;;;;3.38;1.38;;;;;;;18.24;69.70;99248.63;5068026;28;20040;-90
2022/06/08 03:51:20;;;;;;;3.67;2.50;;;;;;;18.41;69.07;99242.34;5060039;28;20094;-91
2022/06/08 03:53:54;;;;;;;2.95;2.03;;;;;;;18.63;67.69;99250.97;5048845;28;20465;-90
2022/06/08 03:56:21;;;;;;;2.00;1.42;;;;;;;18.79;67.57;99252.72;5054467;28;20032;-91
2022/06/08 03:58:47;;;;;;;4.47;3.00;;;;;;;18.66;68.68;99230.31;5069132;28;20038;-90
2022/06/08 04:01:14;;;;;;;2.35;1.38;;;;;;;18.95;68.33;99251.88;5063075;28;20563;-88
2022/06/08 04:03:39;;;;;;;3.88;2.85;;;;;;;19.20;67.52;99246.03;5048926;28;20069;-88
2022/06/08 04:06:05;;;;;;;4.97;2.63;;;;;;;19.33;67.66;99267.56;5055235;28;20117;-91
2022/06/08 04:08:31;;;;;;;6.68;2.63;;;;;;;19.30;67.80;99252.53;5069153;28;20037;-87
2022/06/08 04:10:57;;;;;;;3.80;2.15;;;;;;;19.43;67.17;99243.78;5058034;28;20044;-86
2022/06/08 04:13:23;;;;;;;3.00;1.90;;;;;;;19.65;66.01;99271.00;5053502;28;20052;-86
2022/06/08 04:15:49;;;;;;;4.25;2.60;;;;;;;19.70;65.81;99260.03;5049259;28;20550;-86
2022/06/08 04:18:19;;;;;;;4.03;3.05;;;;;;;19.96;65.25;99276.38;5059655;28;20115;-86
2022/06/08 04:20:48;;;;;;;5.70;2.63;;;;;;;20.04;63.69;99260.72;5061948;28;20086;-86
2022/06/08 04:23:14;;;;;;;2.95;2.13;;;;;;;20.08;64.00;99258.69;5068553;28;20052;-86
2022/06/08 04:25:42;;;;;;;3.00;2.13;;;;;;;19.99;63.76;99260.16;5068140;28;20032;-86
2022/06/08 04:28:08;;;;;;;2.58;1.95;;;;;;;19.92;63.61;99258.78;5066521;28;20040;-87
2022/06/08 04:30:34;;;;;;;2.53;1.77;;;;;;;19.95;63.20;99270.16;5054498;28;20047;-86
2022/06/08 04:33:00;;;;;;;1.60;0.80;;;;;;;19.76;60.12;99237.41;5048537;28;20033;-87
2022/06/08 04:35:26;;;;;;;1.58;1.00;;;;;;;19.99;58.78;99257.47;5064414;28;20032;-89
2022/06/08 04:37:52;;;;;;;2.47;1.80;;;;;;;20.32;56.41;99270.56;5060516;28;20418;-90
2022/06/08 04:40:18;;;;;;;1.10;1.00;;;;;;;20.43;56.43;99264.56;5048529;28;20040;-89
2022/06/08 04:42:43;;;;;;;1.83;1.13;;;;;;;20.68;55.00;99252.31;5048084;28;20033;-88
2022/06/08 04:45:10;;;;;;;2.17;1.65;;;;;;;20.93;55.65;99262.34;5063170;28;20045;-87
2022/06/08 04:47:36;;;;;;;1.73;1.05;;;;;;;21.20;54.96;99256.97;5065388;28;20025;-88
2022/06/08 04:50:02;;;;;;;2.33;1.48;;;;;;;21.21;54.39;99256.03;5048267;28;20449;-85
2022/06/08 04:52:27;;;;;;;1.50;0.95;;;;;;;21.56;54.41;99268.91;5059901;28;20033;-85
2022/06/08 04:54:53;;;;;;;1.58;0.95;;;;;;;21.39;54.35;99256.59;5068208;28;20028;-85
2022/06/08 04:57:18;;;;;;;2.25;1.20;;;;;;;21.98;53.55;99272.34;5065662;28;20812;-84
2022/06/08 04:59:44;;;;;;;1.95;0.90;;;;;;;22.43;52.29;99258.53;5047706;28;20043;-84
2022/06/08 05:02:10;;;;;;;6.25;1.50;;;;;;;22.48;51.08;99271.63;5056109;28;20040;-84
2022/06/08 05:04:36;;;;;;;1.80;0.90;;;;;;;22.53;49.85;99261.41;5051159;28;20553;-84
2022/06/08 05:07:03;;;;;;;2.03;1.33;;;;;;;22.61;52.14;99266.22;5046594;28;20127;-84
2022/06/08 05:09:28;;;;;;;1.65;1.33;;;;;;;22.64;49.85;99256.09;5055186;28;20044;-85
2022/06/08 05:11:54;;;;;;;2.13;1.40;;;;;;;22.66;51.88;99273.00;5061555;28;20032;-85
2022/06/08 05:14:19;;;;;;;2.42;1.70;;;;;;;22.79;50.98;99272.97;5056347;28;20048;-85
2022/06/08 05:16:46;;;;;;;3.50;1.70;;;;;;;22.41;50.66;99255.06;5065935;28;20544;-85
2022/06/08 05:19:11;;;;;;;2.10;1.30;;;;;;;22.15;51.29;99252.38;5067301;28;20593;-85
2022/06/08 05:21:37;;;;;;;4.35;1.83;;;;;;;22.28;51.61;99249.69;5053450;28;20037;-85
2022/06/08 05:24:03;;;;;;;3.20;2.25;;;;;;;22.41;52.10;99255.06;5046742;28;20045;-86
2022/06/08 05:26:28;;;;;;;2.92;1.92;;;;;;;22.37;53.02;99256.28;5045986;28;20044;-85
2022/06/08 05:28:54;;;;;;;4.28;2.97;;;;;;;22.34;52.33;99243.91;5047437;28;20033;-84
2022/06/08 05:31:19;;;;;;;3.60;1.88;;;;;;;22.06;52.77;99239.59;5047413;28;20036;-85
2022/06/08 05:33:45;;;;;;;2.20;1.85;;;;;;;22.22;53.44;99260.84;5047159;28;20052;-85
2022/06/08 05:36:10;;;;;;;4.50;2.70;;;;;;;22.99;52.23;99274.19;5047312;28;20041;-84
2022/06/08 05:38:36;;;;;;;2.75;1.73;;;;;;;23.18;52.01;99273.72;5047678;28;20052;-84
2022/06/08 05:41:01;;;;;;;2.83;2.35;;;;;;;22.98;52.75;99277.00;5048402;28;20067;-84
2022/06/08 05:43:27;;;;;;;2.65;1.95;;;;;;;23.56;51.16;99275.41;5065142;28;20029;-83
2022/06/08 05:45:53;;;;;;;3.33;2.40;;;;;;;23.19;51.61;99250.41;5068497;28;20048;-84
2022/06/08 05:48:19;;;;;;;11.88;2.38;;;;;;;22.95;53.17;99275.38;5067081;28;20032;-85
2022/06/08 05:50:45;;;;;;;3.25;2.35;;;;;;;23.00;55.19;99281.31;5059681;28;20033;-84
2022/06/08 05:53:12;;;;;;;2.72;1.77;;;;;;;23.31;53.05;99265.63;5050129;28;20041;-83
2022/06/08 05:55:38;;;;;;;4.45;2.67;;;;;;;23.33;52.26;99281.66;5049211;28;20036;-82
2022/06/08 05:58:04;;;;;;;3.20;2.08;;;;;;;23.57;52.05;99266.34;5050068;28;20120;-82
2022/06/08 06:00:33;;;;;;;2.92;2.30;;;;;;;23.29;53.27;99264.00;5052705;28;20021;-82
2022/06/08 06:02:59;;;;;;;3.47;1.88;;;;;;;23.56;52.24;99271.84;5046837;28;20033;-85
2022/06/08 06:05:27;;;;;;;3.97;3.65;;;;;;;23.93;49.68;99253.75;5047200;28;20059;-85
2022/06/08 06:07:54;;;;;;;3.67;2.45;;;;;;;24.51;48.65;99252.81;5046994;28;20032;-85
2022/06/08 06:10:20;;;;;;;4.13;2.70;;;;;;;24.64;48.99;99252.75;5046943;28;20036;-85
2022/06/08 06:12:45;;;;;;;3.50;1.98;;;;;;;25.14;48.13;99266.63;5045997;28;20037;-85
2022/06/08 06:15:13;;;;;;;4.20;2.45;;;;;;;25.36;46.10;99268.47;5047070;28;20025;-84
2022/06/08 06:17:38;;;;;;;3.75;2.47;;;;;;;25.89;47.40;99246.00;5046284;28;20032;-83
2022/06/08 06:20:05;;;;;;;2.58;1.95;;;;;;;25.51;46.36;99247.41;5046841;28;20457;-85
2022/06/08 06:22:33;;;;;;;4.45;2.03;;;;;;;25.78;45.47;99237.09;5046043;28;20506;-85
2022/06/08 06:24:59;;;;;;;3.85;1.88;;;;;;;26.48;44.49;99249.03;5046345;28;20037;-85
2022/06/08 06:27:25;;;;;;;3.00;2.20;;;;;;;26.32;43.29;99267.59;5046265;28;20410;-85
2022/06/08 06:29:51;;;;;;;6.55;3.22;;;;;;;26.36;42.88;99252.81;5046277;28;20044;-85
2022/06/08 06:32:25;;;;;;;6.15;4.82;;;;;;;26.58;43.93;99263.44;5046208;28;20025;-85
2022/06/08 06:34:52;;;;;;;3.80;2.95;;;;;;;26.80;43.72;99253.44;5046629;28;20043;-84
2022/06/08 06:37:17;;;;;;;4.50;2.38;;;;;;;27.03;43.72;99240.53;5045813;28;20622;-84
2022/06/08 17:40:06;;;;;;;2.27;2.07;;;;;;;24.34;54.92;99021.56;4574474;22;9104013;-81
2022/06/08 17:42:32;;;;;;;1.10;1.00;;;;;;;23.78;56.12;99010.72;4986959;28;20259;-87
2022/06/08 17:45:00;;;;;;;1.70;1.10;;;;;;;23.65;56.90;99009.16;4970684;28;20139;-88
2022/06/08 17:47:28;;;;;;;1.45;1.00;;;;;;;23.52;57.36;99022.72;4982881;28;20030;-89
2022/06/08 17:49:54;;;;;;;2.58;1.52;;;;;;;23.49;57.95;99036.44;4987603;28;20030;-85
2022/06/08 17:52:22;;;;;;;1.88;1.10;;;;;;;23.40;57.98;99033.50;4988234;28;20038;-84
2022/06/08 17:54:48;;;;;;;1.67;0.95;;;;;;;23.44;57.68;99004.50;4970715;28;20471;-87
2022/06/08 17:57:14;;;;;;;1.98;0.95;;;;;;;23.55;57.33;99011.72;4987725;28;20034;-85
2022/06/08 17:59:40;;;;;;;0.75;0.68;;;;;;;23.68;57.56;99025.94;4988054;28;20038;-86
2022/06/08 18:02:16;;;;;;;0.70;0.60;;;;;;;23.75;57.38;99031.66;4971137;28;20026;-85
2022/06/08 18:04:43;;;;;;;2.47;1.20;;;;;;;23.74;57.63;99030.81;4987791;28;20058;-85
2022/06/08 18:07:10;;;;;;;1.45;1.15;;;;;;;23.62;58.16;99030.91;4987463;28;20037;-82
2022/06/08 18:09:37;;;;;;;2.45;1.40;;;;;;;23.68;58.29;99034.00;4988064;28;20038;-83
2022/06/08 18:12:05;;;;;;;1.20;0.73;;;;;;;23.63;58.12;99038.03;4987648;28;20093;-82
2022/06/08 18:14:48;;;;;;;2.10;1.75;;;;;;;23.52;58.54;99028.97;4987588;28;20149;-83
2022/06/08 18:17:17;;;;;;;2.85;0.93;;;;;;;23.60;58.44;99044.50;4987235;28;20113;-83
2022/06/08 18:19:45;;;;;;;2.75;1.25;;;;;;;23.77;58.05;99046.72;4988315;28;20030;-82
2022/06/08 18:22:10;;;;;;;0.98;0.88;;;;;;;23.57;58.45;99042.94;4987428;28;20042;-82
2022/06/08 18:24:36;;;;;;;1.45;0.77;;;;;;;23.67;58.75;99063.75;4987769;28;20065;-83
2022/06/08 18:27:08;;;;;;;0.60;0.60;;;;;;;23.61;58.41;99038.16;4987348;28;20034;-82
2022/06/08 18:29:42;;;;;;;2.17;1.55;;;;;;;23.63;58.13;99038.88;4981241;28;20034;-83
2022/06/08 18:32:10;;;;;;;1.60;1.40;;;;;;;23.83;58.45;99063.38;4987918;28;20022;-84
2022/06/08 18:34:35;;;;;;;1.23;0.95;;;;;;;23.92;58.03;99068.88;4969858;28;20398;-83
2022/06/08 18:37:01;;;;;;;2.30;1.17;;;;;;;23.82;57.90;99054.44;4987753;28;20046;-83
2022/06/08 18:39:27;;;;;;;2.03;1.10;;;;;;;24.00;58.33;99092.50;4987421;28;20042;-82
2022/06/08 18:41:52;;;;;;;3.13;1.17;;;;;;;23.96;58.14;99085.69;4987657;28;20050;-82
2022/06/08 18:44:19;;;;;;;0.85;0.80;;;;;;;23.95;58.45;99075.88;4987853;28;20176;-83
2022/06/08 18:46:45;;;;;;;0.80;0.80;;;;;;;23.84;58.78;99082.13;4988277;28;20743;-83
2022/06/08 18:49:12;;;;;;;1.00;0.80;;;;;;;23.86;58.93;99103.53;4987285;28;20031;-83
2022/06/08 18:51:39;;;;;;;1.50;1.00;;;;;;;23.58;59.93;99086.84;4987335;28;20404;-82
2022/06/08 18:54:05;;;;;;;1.38;0.77;;;;;;;23.29;60.22;99064.91;4987769;28;20478;-81
2022/06/08 18:56:31;;;;;;;3.17;0.93;;;;;;;23.44;60.65;99100.53;4985201;28;20049;-84
2022/06/08 18:58:57;;;;;;;1.17;0.95;;;;;;;23.39;60.92;99098.22;4968544;28;20085;-83
2022/06/08 19:01:27;;;;;;;1.65;0.80;;;;;;;23.41;60.96;99113.22;4968591;28;20405;-82
2022/06/08 19:03:53;;;;;;;1.08;0.98;;;;;;;23.16;61.29;99075.78;4974521;28;20146;-83
2022/06/08 19:06:20;;;;;;;13.07;1.83;;;;;;;23.37;61.31;99109.09;4987590;28;20053;-83
2022/06/08 19:08:50;;;;;;;2.47;0.70;;;;;;;23.31;61.64;99117.63;4987306;28;20030;-82
2022/06/08 19:11:20;;;;;;;1.88;1.42;;;;;;;22.90;62.19;99078.59;4987114;28;20488;-83
2022/06/08 19:13:45;;;;;;;0.68;0.63;;;;;;;22.87;62.78;99109.25;4986926;28;20133;-81
2022/06/08 19:16:12;;;;;;;1.42;1.17;;;;;;;23.00;62.20;99114.56;4987193;28;20466;-82
2022/06/08 19:21:23;;;;;;;1.95;0.98;;;;;;;22.79;63.46;99129.63;4987458;28;20137;-82
2022/06/08 19:23:49;;;;;;;1.98;1.48;;;;;;;22.68;63.56;99119.69;4987480;28;20041;-82
2022/06/08 19:26:16;;;;;;;1.83;1.02;;;;;;;22.82;63.18;99113.25;4986517;28;20039;-83
2022/06/08 19:28:42;;;;;;;2.25;1.00;;;;;;;22.94;63.14;99133.84;4986852;28;20030;-83
2022/06/08 19:31:09;;;;;;;3.50;1.80;;;;;;;22.94;63.22;99127.59;4987098;28;20034;-83
2022/06/08 19:33:41;;;;;;;2.10;1.15;;;;;;;22.81;62.88;99116.91;4986603;28;20040;-85
2022/06/08 19:36:11;;;;;;;2.80;1.35;;;;;;;22.92;63.53;99140.31;4987075;28;20037;-84
2022/06/08 19:38:37;;;;;;;3.30;1.65;;;;;;;22.72;63.49;99113.06;4986782;28;20042;-84
2022/06/08 19:41:05;;;;;;;1.63;1.23;;;;;;;22.66;63.09;99103.66;4986516;28;20119;-85
2022/06/08 19:43:31;;;;;;;2.53;1.77;;;;;;;22.73;63.57;99130.94;4987007;28;20427;-85
2022/06/08 19:45:58;;;;;;;0.45;0.45;;;;;;;22.42;63.76;99086.66;4987447;28;20149;-85
2022/06/08 19:48:24;;;;;;;1.98;1.52;;;;;;;22.49;63.53;99091.47;4986575;28;20030;-85
2022/06/08 19:50:50;;;;;;;1.75;1.42;;;;;;;22.33;64.28;99096.25;4980357;28;20125;-85
2022/06/08 19:53:17;;;;;;;1.52;1.13;;;;;;;22.29;64.60;99083.97;4986975;28;20144;-84
2022/06/08 19:55:43;;;;;;;2.45;1.73;;;;;;;22.38;64.68;99112.88;4986949;28;20547;-84
2022/06/08 19:58:13;;;;;;;1.73;1.33;;;;;;;22.15;65.21;99083.16;4987418;28;20161;-85
2022/06/08 20:00:41;;;;;;;2.00;1.45;;;;;;;22.24;65.26;99103.09;4986615;28;20038;-84
2022/06/08 20:03:07;;;;;;;2.63;1.67;;;;;;;22.40;64.54;99110.09;4969724;28;20507;-85
2022/06/08 20:05:34;;;;;;;1.90;1.17;;;;;;;22.46;64.77;99142.75;4986838;28;20034;-84
2022/06/08 20:08:01;;;;;;;1.92;1.08;;;;;;;22.27;64.47;99102.03;4965810;28;20420;-85
2022/06/08 20:10:27;;;;;;;2.55;1.42;;;;;;;22.34;64.26;99122.16;4979914;28;20120;-85
2022/06/08 20:12:54;;;;;;;1.73;1.25;;;;;;;22.53;64.05;99137.78;4990298;28;20524;-83
2022/06/08 20:15:21;;;;;;;2.35;1.40;;;;;;;22.41;63.52;99118.03;4989204;28;20043;-84
2022/06/08 20:17:48;;;;;;;1.70;1.20;;;;;;;22.55;63.17;99137.66;4989250;28;20045;-84
2022/06/08 20:20:15;;;;;;;1.48;1.08;;;;;;;22.34;63.20;99093.44;4976049;28;20046;-85
2022/06/08 20:22:41;;;;;;;2.00;1.10;;;;;;;22.48;63.86;99148.00;4970536;28;20035;-85
2022/06/08 20:25:07;;;;;;;1.88;0.90;;;;;;;22.41;63.29;99115.34;4969489;28;20394;-85
2022/06/08 20:27:34;;;;;;;2.08;1.25;;;;;;;22.61;62.84;99140.75;4981511;28;20096;-85
2022/06/08 20:30:00;;;;;;;3.17;1.30;;;;;;;22.62;62.35;99118.28;4990704;28;20034;-85
2022/06/08 20:32:26;;;;;;;2.45;1.48;;;;;;;22.66;62.45;99148.47;4989250;28;20420;-85
2022/06/08 20:34:53;;;;;;;1.42;1.20;;;;;;;22.29;63.15;99124.25;4990339;28;20092;-84
2022/06/08 20:37:20;;;;;;;1.80;1.15;;;;;;;22.45;63.67;99153.63;4989390;28;20118;-85
2022/06/08 20:39:46;;;;;;;2.22;1.35;;;;;;;22.37;64.23;99130.00;4990015;28;20043;-85
2022/06/08 20:42:15;;;;;;;2.35;1.73;;;;;;;21.87;66.11;99124.53;4989003;28;20073;-84
2022/06/08 20:44:42;;;;;;;1.80;1.42;;;;;;;21.86;65.76;99103.19;4970541;28;20050;-85
2022/06/08 20:47:08;;;;;;;2.47;1.52;;;;;;;22.06;65.74;99133.97;4971585;28;20109;-85
2022/06/08 20:49:34;;;;;;;1.63;1.13;;;;;;;22.03;65.79;99128.81;4989294;28;20112;-86
2022/06/08 20:52:02;;;;;;;1.17;0.95;;;;;;;22.12;65.25;99117.44;4986648;28;20196;-86
2022/06/08 20:54:28;;;;;;;0.70;0.55;;;;;;;22.12;65.39;99120.13;4989456;28;20044;-85
2022/06/08 20:56:54;;;;;;;1.27;0.80;;;;;;;22.28;65.23;99131.47;4993650;28;20137;-84
2022/06/08 20:59:19;;;;;;;1.98;1.25;;;;;;;22.03;65.64;99089.44;4997342;28;20128;-83
2022/06/08 21:01:45;;;;;;;2.17;1.13;;;;;;;22.29;65.97;99130.53;4993984;28;20040;-83
2022/06/08 21:04:11;;;;;;;1.90;1.20;;;;;;;21.88;67.25;99120.06;4992086;28;20033;-83
2022/06/08 21:06:37;;;;;;;1.77;0.93;;;;;;;21.59;67.89;99107.69;4992016;28;20038;-83
2022/06/08 21:09:03;;;;;;;2.97;2.63;;;;;;;21.63;68.00;99114.59;4990383;28;20073;-83
2022/06/08 21:11:29;;;;;;;0.95;0.88;;;;;;;21.73;67.77;99113.94;4970907;28;20953;-83
2022/06/08 21:13:54;;;;;;;1.52;1.05;;;;;;;21.86;68.50;99130.03;4988796;28;20046;-84
2022/06/08 21:16:20;;;;;;;1.95;1.23;;;;;;;21.78;68.51;99128.75;4972422;28;20049;-85
2022/06/08 21:18:46;;;;;;;1.00;0.82;;;;;;;21.94;67.79;99131.22;4989293;28;20041;-84
2022/06/08 21:21:13;;;;;;;1.65;1.00;;;;;;;21.79;67.34;99090.19;4988943;28;20447;-84
2022/06/08 21:23:41;;;;;;;1.52;1.00;;;;;;;21.73;67.43;99093.31;4988751;28;20050;-84
2022/06/08 21:26:07;;;;;;;1.35;1.15;;;;;;;21.92;67.80;99098.25;4988628;28;20092;-84
2022/06/08 21:28:32;;;;;;;2.13;1.35;;;;;;;21.98;68.06;99118.41;4989353;28;20147;-83
2022/06/08 21:30:59;;;;;;;1.25;0.90;;;;;;;21.92;68.04;99119.72;4988874;28;20030;-83
2022/06/08 21:33:25;;;;;;;1.73;1.08;;;;;;;21.94;68.17;99115.09;4989147;28;20038;-83
2022/06/08 21:35:51;;;;;;;2.40;1.67;;;;;;;22.05;67.44;99105.44;4989554;28;20034;-84
2022/06/08 21:38:17;;;;;;;0.82;0.80;;;;;;;22.37;66.77;99121.94;4988959;28;20459;-84
2022/06/08 21:40:43;;;;;;;1.63;1.38;;;;;;;22.24;66.38;99078.94;4989004;28;20054;-85
2022/06/08 21:43:10;;;;;;;2.75;1.58;;;;;;;22.58;65.52;99124.00;4986694;28;20784;-85
2022/06/08 21:45:39;;;;;;;2.15;0.80;;;;;;;22.66;64.62;99111.72;4988868;28;20038;-85
2022/06/08 21:48:06;;;;;;;1.85;1.00;;;;;;;22.50;65.05;99109.28;4988584;28;20145;-85
2022/06/08 21:50:33;;;;;;;2.00;1.20;;;;;;;22.66;64.75;99103.66;4988923;28;20030;-85
2022/06/08 21:52:59;;;;;;;1.90;1.10;;;;;;;22.54;64.96;99088.44;4971471;28;20065;-84
2022/06/08 21:55:28;;;;;;;2.60;1.38;;;;;;;22.63;64.53;99068.94;4983243;28;20043;-84
2022/06/08 21:57:56;;;;;;;3.50;1.42;;;;;;;22.51;64.89;99070.72;4989098;28;20030;-85
2022/06/08 22:00:29;;;;;;;1.73;1.27;;;;;;;22.73;64.99;99090.59;4971146;28;20781;-84
2022/06/08 22:02:56;;;;;;;1.55;1.00;;;;;;;22.52;65.29;99064.38;4981491;28;20038;-84
2022/06/08 22:05:23;;;;;;;2.20;1.45;;;;;;;22.60;65.56;99084.41;4987777;28;20500;-84
2022/06/08 22:07:50;;;;;;;3.97;1.88;;;;;;;22.50;65.71;99073.50;4987104;28;20038;-84
2022/06/08 22:10:16;;;;;;;2.25;1.15;;;;;;;22.36;67.24;99101.41;4970352;28;20129;-84
2022/06/08 22:12:41;;;;;;;1.30;0.88;;;;;;;22.03;68.04;99080.50;4988212;28;20034;-85
2022/06/08 22:15:09;;;;;;;1.40;0.95;;;;;;;22.16;68.71;99098.28;4987133;28;20029;-84
2022/06/08 22:17:35;;;;;;;3.85;1.95;;;;;;;22.07;69.22;99098.13;4981289;28;20044;-84
2022/06/08 22:20:01;;;;;;;4.93;2.42;;;;;;;21.98;69.53;99092.44;4987121;28;20085;-84
2022/06/08 22:22:27;;;;;;;2.22;1.60;;;;;;;22.10;69.05;99092.53;4988424;28;20041;-84
2022/06/08 22:24:52;;;;;;;3.03;1.65;;;;;;;22.10;68.85;99092.53;4987588;28;20059;-84
2022/06/08 22:27:18;;;;;;;1.58;1.00;;;;;;;22.09;68.25;99070.19;4987620;28;20042;-83
2022/06/08 22:29:44;;;;;;;3.55;1.70;;;;;;;22.27;67.91;99105.56;4987816;28;20060;-84
2022/06/08 22:32:10;;;;;;;1.90;1.13;;;;;;;22.26;67.32;99073.44;4987113;28;20069;-84
2022/06/08 22:34:35;;;;;;;2.72;1.23;;;;;;;22.25;67.81;99107.53;4987144;28;20034;-83
2022/06/08 22:37:01;;;;;;;2.03;1.40;;;;;;;22.00;68.14;99060.97;4987578;28;20092;-84
2022/06/08 22:39:26;;;;;;;3.55;1.75;;;;;;;21.97;68.03;99066.56;4969980;28;20044;-84
2022/06/08 22:41:52;;;;;;;2.60;1.85;;;;;;;22.20;68.12;99092.69;4985769;28;20046;-83
2022/06/08 22:44:17;;;;;;;1.05;0.95;;;;;;;21.75;68.98;99050.25;4987014;28;20500;-83
2022/06/08 22:46:43;;;;;;;1.83;1.38;;;;;;;22.06;68.31;99082.97;4987580;28;20033;-83
2022/06/08 22:49:08;;;;;;;3.33;1.63;;;;;;;22.00;68.46;99079.75;4970120;28;20034;-84